Stunt Ranch Reserve, Santa Monica Mtns, California Weather observations

Data are for 10 minute period ending at time listed.
 Day   Time   Solar   Ave.   Ave.  Ave.  Vector  Max.   Baro.   Total    
  of    of     Rad.   Air    Rel.  Wind   Wind   Wind  Press.  Precip.   
Year   Day            Temp.  Hum.  Speed  Dir.   Gust                    
2014   (PST)  Kw/m2    F      %     mph   deg.    mph    mb.     in.     
-------------------------------------------------------------------------
 106   18:10   0.03   63.8    64    3.1   281     4.9   962.1    0.00 
 106   18:20   0.01   62.0    68    2.2   270     3.9   962.4    0.00 
 106   18:30   0.01   60.5    70    3.0   268     4.9   962.4    0.00 
 106   18:40   0.00   59.5    73    0.9   253     2.2   962.8    0.00 
 106   18:50   0.00   58.8    74    0.4   264     0.9   962.8    0.00 
 106   19:00   0.00   58.3    75    0.7   272     1.6   963.1    0.00 
 106   19:10   0.00   57.8    77    0.6   216     1.9   963.1    0.00 
 106   19:20   0.00   57.8    76    0.5   121     1.8   963.1    0.00 
 106   19:30   0.00   57.5    76    1.2   155     1.8   963.4    0.00 
 106   19:40   0.00   56.9    77    0.5   218     1.7   963.8    0.00 
 106   19:50   0.00   56.9    78    1.3   214     2.9   963.8    0.00 
 106   20:00   0.00   57.7    76    1.2   226     2.6   963.8    0.00 
 106   20:10   0.00   57.7    76    0.5   223     1.6   964.1    0.00 
 106   20:20   0.00   57.8    76    0.0   235     0.1   964.1    0.00 
 106   20:30   0.00   57.1    77    0.8   177     2.3   964.1    0.00 
 106   20:40   0.00   57.1    78    1.6   195     3.1   964.1    0.00 
 106   20:50   0.00   56.7    77    0.8   175     1.9   964.1    0.00 
 106   21:00   0.00   56.5    78    1.3   241     2.5   964.4    0.00 
 106   21:10   0.00   56.8    77    1.3   280     2.9   964.4    0.00 
 106   21:20   0.00   55.8    77    1.1   137     2.6   964.4    0.00 
 106   21:30   0.00   56.6    76    1.0   238     2.8   964.4    0.00 
 106   21:40   0.00   56.5    76    1.4   204     2.6   964.4    0.00 
 106   21:50   0.00   56.5    73    1.1   280     3.7   964.4    0.00 
 106   22:00   0.00   55.9    74    2.8   260     4.6   964.4    0.00 
 106   22:10   0.00   56.2    71    1.5   209     3.2   964.1    0.00 
 106   22:20   0.00   55.8    72    3.2   265     5.6   964.4    0.00 
 106   22:30   0.00   55.0    77    4.5   262     6.6   964.4    0.00 
 106   22:40   0.00   55.2    79    1.7    14     5.3   964.4    0.00 
 106   22:50   0.00   54.9    79    1.1   245     2.4   964.4    0.00 
 106   23:00   0.00   54.7    79    1.2   278     2.7   964.8    0.00 
 106   23:10   0.00   54.9    77    1.9   275     3.7   964.8    0.00 
 106   23:20   0.00   54.6    78    3.0   285     5.0   964.8    0.00 
 106   23:30   0.00   54.7    77    1.5   119     3.5   964.8    0.00 
 106   23:40   0.00   54.8    76    0.7   148     2.3   964.8    0.00 
 106   23:50   0.00   54.1    78    2.2   261     4.7   964.4    0.00 
 107    0:00   0.00   54.2    78    2.0   245     4.5   964.4    0.00 
 107    0:10   0.00   54.2    76    1.6   155     3.9   964.1    0.00 
 107    0:20   0.00   54.0    77    2.7   220     4.3   964.1    0.00 
 107    0:30   0.00   54.4    76    2.4   266     4.4   964.1    0.00 
 107    0:40   0.00   53.3    79    4.9   266     6.5   964.1    0.00 
 107    0:50   0.00   52.9    83    3.6   261     5.7   964.1    0.00 
 107    1:00   0.00   52.5    80    0.4   116     2.8   963.8    0.00 
 107    1:10   0.00   52.2    82    2.2   260     5.7   963.8    0.00 
 107    1:20   0.00   51.8    88    4.6   257     6.2   963.8    0.00 
 107    1:30   0.00   51.4    88    2.7   201     5.2   963.8    0.00 
 107    1:40   0.00   50.8    87    1.3   231     3.7   963.8    0.00 
 107    1:50   0.00   50.8    89    3.3   264     5.1   963.8    0.00 
 107    2:00   0.00   51.1    92    3.0   266     4.7   963.8    0.00 
 107    2:10   0.00   51.0    93    3.9   262     7.1   963.8    0.00 
 107    2:20   0.00   51.1    94    2.3   254     3.9   963.8    0.00 
 107    2:30   0.00   50.9    94    0.4   108     1.8   963.8    0.00 
 107    2:40   0.00   50.9    94    0.9   204     3.2   964.1    0.00 
 107    2:50   0.00   50.7    94    0.9   296     2.8   964.1    0.00 
 107    3:00   0.00   51.2    95    1.0   231     3.1   964.1    0.00 
 107    3:10   0.00   51.0    95    2.3   150     5.6   964.1    0.00 
 107    3:20   0.00   51.3    94    3.2   101     9.1   964.1    0.00 
 107    3:30   0.00   52.0    93    1.3   220     3.4   964.1    0.00 
 107    3:40   0.00   51.7    93    3.6   230     5.5   964.4    0.00 
 107    3:50   0.00   51.7    93    3.2   209     5.4   964.4    0.00 
 107    4:00   0.00   51.6    93    2.8   196     4.3   964.4    0.00 
 107    4:10   0.00   51.5    93    2.8   205     4.5   964.4    0.00 
 107    4:20   0.00   51.4    92    1.2   196     3.2   964.4    0.00 
 107    4:30   0.00   51.0    92    1.2   208     2.6   964.4    0.00 
 107    4:40   0.00   51.0    92    1.1   254     3.2   964.4    0.00 
 107    4:50   0.00   50.7    92    1.9   117     3.9   964.1    0.00 
 107    5:00   0.00   50.4    92    1.2   132     4.0   964.1    0.00 
 107    5:10   0.00   50.8    92    3.1    96     7.2   964.4    0.00 
 107    5:20   0.01   50.9    91    1.7   149     3.4   964.4    0.00 
 107    5:30   0.01   50.5    91    2.8   109     6.9   964.4    0.00 
 107    5:40   0.02   50.2    91    3.1   122     4.9   964.4    0.00 
 107    5:50   0.03   50.5    92    2.5    97     6.2   964.4    0.00 
 107    6:00   0.04   51.2    91    3.8    82     8.5   964.4    0.00 
 107    6:10   0.06   51.6    91    2.0    76     6.2   964.4    0.00 
 107    6:20   0.08   52.5    89    2.9    65     5.7   964.8    0.00 
 107    6:30   0.12   52.9    88    1.4   117     3.5   964.4    0.00 
 107    6:40   0.18   55.0    84    1.0   306     4.2   964.8    0.00 
 107    6:50   0.20   57.1    78    2.0    82     5.3   964.8    0.00 
 107    7:00   0.11   57.0    78    1.4    15     3.7   965.1    0.00 
 107    7:10   0.18   56.9    80    2.2   331     6.1   965.1    0.00 
 107    7:20   0.30   58.6    76    2.9   280     5.6   965.1    0.00 
 107    7:30   0.35   59.9    72    3.1   266     5.9   965.5    0.00 
 107    7:40   0.38   60.7    70    1.8   283     5.1   965.5    0.00 
 107    7:50   0.45   61.8    68    2.2   294     4.7   965.5    0.00 
 107    8:00   0.48   63.6    65    2.4   288     5.0   965.5    0.00 
 107    8:10   0.53   63.2    67    5.9    29    13.2   965.5    0.00 
 107    8:20   0.56   61.2    71    8.3    54    12.7   965.5    0.00 
 107    8:30   0.57   61.6    70    6.7    46    12.1   965.5    0.00 
 107    8:40   0.50   62.3    68    4.2   356     9.2   965.8    0.00 
 107    8:50   0.60   64.4    63    1.5   311     4.6   965.8    0.00 
 107    9:00   0.63   65.6    62    3.9   351     8.0   965.8    0.00 
 107    9:10   0.59   67.3    60    3.7   351     9.1   965.8    0.00 
 107    9:20   0.65   67.8    58    5.7     6    11.4   965.8    0.00 
 107    9:30   0.39   65.7    62    4.2    15    11.8   965.8    0.00 
 107    9:40   0.45   66.1    62    4.1   341     9.9   965.8    0.00 
 107    9:50   0.71   66.1    62    2.9   329     6.2   966.1    0.00 
 107   10:00   0.69   67.1    61    3.2   300     8.8   966.1    0.00 
 107   10:10   0.60   68.0    60    2.5   338     6.4   965.8    0.00 
 107   10:20   0.65   69.1    57    3.0   305     8.8   966.1    0.00 
 107   10:30   0.71   68.8    58    3.0   305     7.5   965.8    0.00 
 107   10:40   0.61   67.5    60    4.3   330    11.1   965.8    0.00 
 107   10:50   0.67   66.6    62    4.7   332     9.1   965.8    0.00 
 107   11:00   0.70   68.1    59    5.0   353     9.9   965.8    0.00 
 107   11:10   0.38   67.3    60    4.2   353    10.4   965.8    0.00 
 107   11:20   0.45   67.7    60    2.7   330     6.0   965.8    0.00 
 107   11:30   0.87   68.1    59    3.9   281     7.7   965.8    0.00 
 107   11:40   0.67   67.2    60    2.4   284     7.5   965.5    0.00 
 107   11:50   0.78   68.1    57    4.9    34     9.9   965.1    0.00 
 107   12:00   0.86   68.5    56    3.5    32     8.3   965.1    0.00 
 107   12:10   0.48   69.6    54    5.4    22    10.7   964.8    0.00 
 107   12:20   0.70   69.2    56    3.6    21     8.4   965.1    0.00 
 107   12:30   0.58   70.1    55    2.9   286     7.8   964.8    0.00 
 107   12:40   0.71   71.6    52    2.6   288     6.6   964.8    0.00 
 107   12:50   0.77   72.9    51    3.3   289     8.5   964.8    0.00 
 107   13:00   0.46   73.1    50    3.9   299     9.1   964.8    0.00 
 107   13:10   0.46   71.2    53    2.8   301     7.2   964.8    0.00 
 107   13:20   0.45   71.2    52    3.0   295     6.2   964.8    0.00 
 107   13:30   0.59   71.0    53    2.1   299     5.6   964.8    0.00 
 107   13:40   0.73   72.3    51    2.9   309     7.1   964.4    0.00 
 107   13:50   0.90   71.9    52    3.7    24     6.9   964.4    0.00 
 107   14:00   0.74   74.6    48    4.0   339     8.7   964.4    0.00 
 107   14:10   0.76   74.9    49    3.5   308     8.4   964.1    0.00 
 107   14:20   0.75   74.1    50    3.5   310     9.1   964.1    0.00 
 107   14:30   0.61   74.2    49    3.3   314     8.6   964.1    0.00 
 107   14:40   0.66   72.5    52    3.5   300     6.7   964.1    0.00 
 107   14:50   0.66   73.2    51    3.2   315     8.4   964.1    0.00 
 107   15:00   0.31   72.2    52    3.8   351    10.4   964.1    0.00 
 107   15:10   0.31   66.8    61    4.4    76     8.4   963.8    0.00 
 107   15:20   0.27   66.3    62    3.3   283     7.1   963.8    0.00 
 107   15:30   0.22   65.6    63    2.8   291     5.3   963.8    0.00 
 107   15:40   0.24   65.2    64    2.8   278     5.3   963.8    0.00 
 107   15:50   0.32   66.0    63    3.0   284     6.5   963.8    0.00 
 107   16:00   0.42   67.1    61    3.3   291     6.3   963.8    0.00 
 107   16:10   0.30   67.0    62    3.3   278     6.1   963.8    0.00 
 107   16:20   0.22   66.4    62    2.7   283     6.0   963.8    0.00 
 107   16:30   0.15   66.1    62    2.2   285     6.1   963.8    0.00 
 107   16:40   0.17   65.8    63    2.1   291     5.1   963.8    0.00 
 107   16:50   0.22   65.2    64    1.2    63     3.6   964.1    0.00 
 107   17:00   0.16   65.1    65    1.4   300     3.1   963.8    0.00 
 107   17:10   0.15   66.1    63    2.0   294     4.3   964.1    0.00 
 107   17:20   0.11   65.6    64    1.9   290     4.4   964.1    0.00 
 107   17:30   0.10   64.0    67    2.7   282     5.8   964.1    0.00 
 107   17:40   0.09   62.0    71    1.9   286     4.1   964.1    0.00 
 107   17:50   0.07   60.5    75    1.6   352     5.8   964.4    0.00 
 107   18:00   0.05   59.9    76    2.6   303     5.8   964.1    0.00 

Return to Stunt Ranch Reserve graphs page.


Western Regional Climate Center,wrcc@dri.edu